Climatologie pour Saint-Brevin les Pins
Jour • Résumé pour janvier 28, 2017 Système :  Métrique    Anglais   Mixte
« - 1 jour
+ 1 jour »
Jour Semaine Mois Année Personnalisé
  Maximum : Minimum : Moyenne :
Température sous abri : 11.7 °C 2.3 °C 7.1 °C
Point de rosée : 8.3 °C 1.8 °C 5.8 °C
Humidité : 98 % 77 % 92 %
Vitesse du vent : 14.5 km/h 0.0 km/h 4.7 km/h
Rafale : 24.1 km/h - -
Direction :- - SW
Pression : 1018.8 hPa 1007.3 hPa -
Précipitations : 2.0 mm    
Historical Graphs
 
 
Tableau de données pour janvier 28, 2017
Heure Tempé Pt rosée Pression Vent Vitesse Rafale Humidité Taux pluie (/hr) Soleil
00:00 8.3 °C 7.5 °C 1007.3 hPa South 11.3 km/h 16.1 km/h 95 % 0.0 mm 0 W/m2
00:05 8.3 °C 7.6 °C 1007.7 hPa SSW 9.7 km/h 16.1 km/h 95 % 0.0 mm 0 W/m2
00:10 8.4 °C 7.6 °C 1007.7 hPa SSW 6.4 km/h 12.9 km/h 95 % 0.0 mm 0 W/m2
00:15 8.5 °C 7.7 °C 1007.7 hPa South 3.2 km/h 14.5 km/h 95 % 0.0 mm 0 W/m2
00:20 8.7 °C 7.9 °C 1007.7 hPa South 8.0 km/h 20.9 km/h 95 % 0.0 mm 0 W/m2
00:25 8.8 °C 8.1 °C 1007.7 hPa South 11.3 km/h 20.9 km/h 95 % 0.0 mm 0 W/m2
00:30 8.9 °C 8.2 °C 1007.7 hPa South 8.0 km/h 19.3 km/h 95 % 0.0 mm 0 W/m2
00:40 9.1 °C 8.3 °C 1008.0 hPa South 12.9 km/h 24.1 km/h 95 % 0.0 mm 0 W/m2
00:45 9.1 °C 8.1 °C 1008.0 hPa South 9.7 km/h 24.1 km/h 94 % 0.0 mm 0 W/m2
00:55 8.9 °C 8.0 °C 1008.0 hPa South 6.4 km/h 22.5 km/h 94 % 0.0 mm 0 W/m2
01:00 8.8 °C 7.9 °C 1008.0 hPa South 6.4 km/h 22.5 km/h 94 % 0.0 mm 0 W/m2
01:05 8.8 °C 7.9 °C 1008.0 hPa SSW 9.7 km/h 17.7 km/h 94 % 0.0 mm 0 W/m2
01:10 8.8 °C 8.1 °C 1008.0 hPa SSW 9.7 km/h 19.3 km/h 95 % 0.0 mm 0 W/m2
01:15 8.8 °C 8.0 °C 1008.0 hPa SSW 6.4 km/h 19.3 km/h 95 % 0.0 mm 0 W/m2
01:20 8.8 °C 8.0 °C 1008.0 hPa SSW 9.7 km/h 14.5 km/h 95 % 0.0 mm 0 W/m2
01:25 8.8 °C 8.0 °C 1008.0 hPa SSW 4.8 km/h 19.3 km/h 95 % 0.0 mm 0 W/m2
01:30 8.7 °C 8.0 °C 1008.4 hPa SSW 6.4 km/h 19.3 km/h 95 % 0.0 mm 0 W/m2
01:35 8.7 °C 8.0 °C 1008.4 hPa SSW 4.8 km/h 12.9 km/h 95 % 0.0 mm 0 W/m2
01:40 8.7 °C 7.9 °C 1008.4 hPa SW 9.7 km/h 17.7 km/h 95 % 0.0 mm 0 W/m2
01:45 8.6 °C 7.8 °C 1008.4 hPa SW 8.0 km/h 17.7 km/h 95 % 0.0 mm 0 W/m2
01:50 8.5 °C 7.7 °C 1008.4 hPa South 9.7 km/h 14.5 km/h 95 % 0.0 mm 0 W/m2
01:55 8.4 °C 7.7 °C 1008.4 hPa SSW 6.4 km/h 14.5 km/h 95 % 0.5 mm 0 W/m2
02:00 8.4 °C 7.6 °C 1008.4 hPa SSW 9.7 km/h 14.5 km/h 95 % 0.5 mm 0 W/m2
02:05 8.3 °C 7.6 °C 1008.7 hPa SSW 8.0 km/h 16.1 km/h 95 % 0.8 mm 0 W/m2
02:10 8.3 °C 7.5 °C 1008.7 hPa West 3.2 km/h 16.1 km/h 95 % 0.8 mm 0 W/m2
02:15 8.2 °C 7.6 °C 1008.7 hPa WNW 11.3 km/h 17.7 km/h 96 % 0.8 mm 0 W/m2
02:20 8.1 °C 7.5 °C 1009.0 hPa WNW 8.0 km/h 17.7 km/h 96 % 0.8 mm 0 W/m2
02:25 7.9 °C 7.1 °C 1009.0 hPa WNW 8.0 km/h 16.1 km/h 95 % 0.8 mm 0 W/m2
02:30 7.7 °C 7.1 °C 1009.0 hPa WNW 4.8 km/h 24.1 km/h 96 % 0.8 mm 0 W/m2
02:35 7.6 °C 7.0 °C 1009.4 hPa WNW 14.5 km/h 24.1 km/h 96 % 0.8 mm 0 W/m2
02:40 7.4 °C 6.8 °C 1009.4 hPa NW 8.0 km/h 20.9 km/h 96 % 0.8 mm 0 W/m2
02:45 7.3 °C 6.7 °C 1009.4 hPa WNW 11.3 km/h 20.9 km/h 96 % 0.8 mm 0 W/m2
02:50 7.3 °C 6.7 °C 1009.7 hPa WNW 4.8 km/h 19.3 km/h 96 % 1.0 mm 0 W/m2
02:55 7.3 °C 6.7 °C 1009.7 hPa WNW 4.8 km/h 17.7 km/h 96 % 0.5 mm 0 W/m2
03:00 7.2 °C 6.6 °C 1009.7 hPa West 11.3 km/h 17.7 km/h 96 % 0.5 mm 0 W/m2
03:05 7.1 °C 6.5 °C 1010.0 hPa West 8.0 km/h 17.7 km/h 96 % 0.5 mm 0 W/m2
03:10 7.0 °C 6.4 °C 1010.0 hPa West 8.0 km/h 19.3 km/h 96 % 0.5 mm 0 W/m2
03:15 6.9 °C 6.4 °C 1010.0 hPa WNW 12.9 km/h 19.3 km/h 96 % 0.5 mm 0 W/m2
03:20 6.9 °C 6.2 °C 1010.0 hPa WNW 6.4 km/h 19.3 km/h 95 % 0.5 mm 0 W/m2
03:25 6.8 °C 6.1 °C 1010.0 hPa WNW 11.3 km/h 16.1 km/h 95 % 0.5 mm 0 W/m2
03:30 6.8 °C 6.1 °C 1010.0 hPa West 9.7 km/h 14.5 km/h 95 % 0.5 mm 0 W/m2
03:35 6.8 °C 6.1 °C 1010.4 hPa WNW 6.4 km/h 14.5 km/h 95 % 0.5 mm 0 W/m2
03:40 6.8 °C 6.0 °C 1010.4 hPa WNW 6.4 km/h 14.5 km/h 95 % 0.5 mm 0 W/m2
03:45 6.7 °C 6.0 °C 1010.4 hPa West 3.2 km/h 12.9 km/h 95 % 0.5 mm 0 W/m2
03:50 6.7 °C 5.9 °C 1010.7 hPa West 6.4 km/h 12.9 km/h 95 % 0.5 mm 0 W/m2
03:55 6.6 °C 5.8 °C 1010.7 hPa West 6.4 km/h 12.9 km/h 95 % 0.5 mm 0 W/m2
04:00 6.5 °C 5.8 °C 1010.7 hPa WNW 6.4 km/h 12.9 km/h 95 % 0.3 mm 0 W/m2
04:05 6.5 °C 5.8 °C 1010.7 hPa WNW 4.8 km/h 11.3 km/h 95 % 0.3 mm 0 W/m2
04:10 6.6 °C 5.8 °C 1011.1 hPa WNW 11.3 km/h 17.7 km/h 95 % 0.3 mm 0 W/m2
04:20 6.5 °C 5.8 °C 1011.1 hPa WNW 6.4 km/h 12.9 km/h 95 % 0.0 mm 0 W/m2
04:25 6.6 °C 5.8 °C 1011.1 hPa West 6.4 km/h 11.3 km/h 95 % 0.0 mm 0 W/m2
04:30 6.6 °C 5.8 °C 1011.4 hPa WNW 3.2 km/h 14.5 km/h 95 % 0.0 mm 0 W/m2
04:35 6.6 °C 5.9 °C 1011.4 hPa WNW 3.2 km/h 14.5 km/h 95 % 0.0 mm 0 W/m2
04:40 6.6 °C 5.9 °C 1011.4 hPa WNW 3.2 km/h 11.3 km/h 95 % 0.0 mm 0 W/m2
04:45 6.6 °C 5.8 °C 1011.4 hPa WNW 3.2 km/h 9.7 km/h 95 % 0.0 mm 0 W/m2
04:50 6.4 °C 5.5 °C 1011.4 hPa West 6.4 km/h 12.9 km/h 94 % 0.0 mm 0 W/m2
04:55 6.4 °C 5.5 °C 1011.7 hPa West 6.4 km/h 12.9 km/h 94 % 0.0 mm 0 W/m2
05:00 6.4 °C 5.5 °C 1011.7 hPa WNW 6.4 km/h 12.9 km/h 94 % 0.0 mm 0 W/m2
05:05 6.4 °C 5.5 °C 1011.7 hPa WNW 4.8 km/h 11.3 km/h 94 % 0.0 mm 0 W/m2
05:10 6.3 °C 5.4 °C 1011.7 hPa WNW 3.2 km/h 11.3 km/h 94 % 0.0 mm 0 W/m2
05:15 6.3 °C 5.4 °C 1011.7 hPa West 4.8 km/h 11.3 km/h 94 % 0.0 mm 0 W/m2
05:20 6.2 °C 5.3 °C 1011.7 hPa WNW 3.2 km/h 11.3 km/h 94 % 0.0 mm 0 W/m2
05:25 6.0 °C 5.1 °C 1011.7 hPa WNW 1.6 km/h 8.0 km/h 94 % 0.0 mm 0 W/m2
05:30 5.8 °C 4.9 °C 1012.1 hPa Calm   4.8 km/h 94 % 0.0 mm 0 W/m2
05:35 5.7 °C 4.8 °C 1012.1 hPa Calm   4.8 km/h 94 % 0.0 mm 0 W/m2
05:40 5.3 °C 4.4 °C 1012.1 hPa Calm   3.2 km/h 94 % 0.0 mm 0 W/m2
05:45 5.2 °C 4.4 °C 1012.1 hPa Calm     95 % 0.0 mm 0 W/m2
05:50 4.9 °C 4.2 °C 1012.1 hPa Calm   1.6 km/h 95 % 0.0 mm 0 W/m2
05:55 4.9 °C 4.2 °C 1012.1 hPa Calm   1.6 km/h 95 % 0.0 mm 0 W/m2
06:00 4.7 °C 4.0 °C 1012.4 hPa Calm   1.6 km/h 95 % 0.0 mm 0 W/m2
06:05 4.4 °C 3.9 °C 1012.4 hPa Calm   1.6 km/h 96 % 0.0 mm 0 W/m2
06:10 4.3 °C 3.7 °C 1012.4 hPa Calm     96 % 0.0 mm 0 W/m2
06:15 4.2 °C 3.6 °C 1012.4 hPa Calm     96 % 0.0 mm 0 W/m2
06:20 4.0 °C 3.4 °C 1012.4 hPa WNW 3.2 km/h 4.8 km/h 96 % 0.0 mm 0 W/m2
06:25 3.8 °C 3.3 °C 1012.4 hPa Calm   4.8 km/h 96 % 0.0 mm 0 W/m2
06:30 3.4 °C 2.9 °C 1012.4 hPa Calm   3.2 km/h 96 % 0.0 mm 0 W/m2
06:35 3.4 °C 2.9 °C 1012.4 hPa Calm   1.6 km/h 96 % 0.0 mm 0 W/m2
06:40 3.2 °C 2.6 °C 1012.4 hPa Calm   1.6 km/h 96 % 0.0 mm 0 W/m2
06:45 3.0 °C 2.4 °C 1012.8 hPa Calm   3.2 km/h 96 % 0.0 mm 0 W/m2
06:50 2.8 °C 2.3 °C 1012.8 hPa Calm   3.2 km/h 96 % 0.0 mm 0 W/m2
06:55 2.9 °C 2.5 °C 1012.8 hPa Calm   3.2 km/h 97 % 0.0 mm 0 W/m2
07:00 2.8 °C 2.3 °C 1012.8 hPa Calm   1.6 km/h 97 % 0.0 mm 0 W/m2
07:05 2.6 °C 2.0 °C 1012.8 hPa Calm   1.6 km/h 96 % 0.0 mm 0 W/m2
07:10 2.3 °C 1.8 °C 1012.8 hPa Calm   1.6 km/h 96 % 0.0 mm 0 W/m2
07:15 2.3 °C 1.9 °C 1012.8 hPa Calm   4.8 km/h 97 % 0.0 mm 0 W/m2
07:20 2.3 °C 1.9 °C 1013.1 hPa Calm   4.8 km/h 97 % 0.0 mm 0 W/m2
07:25 2.3 °C 1.9 °C 1013.1 hPa WNW 1.6 km/h 4.8 km/h 97 % 0.0 mm 0 W/m2
07:30 2.6 °C 2.1 °C 1013.1 hPa WNW 3.2 km/h 4.8 km/h 97 % 0.0 mm 0 W/m2
07:35 2.6 °C 2.2 °C 1013.1 hPa WSW 3.2 km/h 6.4 km/h 97 % 0.0 mm 0 W/m2
07:40 2.7 °C 2.2 °C 1013.1 hPa SW 1.6 km/h 6.4 km/h 97 % 0.0 mm 0 W/m2
07:45 2.6 °C 2.2 °C 1013.1 hPa SW 3.2 km/h 4.8 km/h 97 % 0.0 mm 0 W/m2
07:50 2.5 °C 2.1 °C 1013.1 hPa SW 4.8 km/h 4.8 km/h 97 % 0.0 mm 0 W/m2
07:55 2.4 °C 2.0 °C 1013.1 hPa South 3.2 km/h 6.4 km/h 97 % 0.0 mm 0 W/m2
08:00 2.5 °C 2.1 °C 1013.4 hPa South 4.8 km/h 6.4 km/h 97 % 0.0 mm 0 W/m2
08:05 2.8 °C 2.4 °C 1013.4 hPa South 4.8 km/h 6.4 km/h 97 % 0.0 mm 0 W/m2
08:10 2.7 °C 2.3 °C 1013.4 hPa South 4.8 km/h 4.8 km/h 97 % 0.0 mm 0 W/m2
08:15 2.8 °C 2.3 °C 1013.4 hPa South 3.2 km/h 4.8 km/h 97 % 0.0 mm 0 W/m2
08:20 2.9 °C 2.5 °C 1013.4 hPa South 3.2 km/h 4.8 km/h 97 % 0.0 mm 0 W/m2
08:25 2.8 °C 2.3 °C 1013.4 hPa Calm   4.8 km/h 97 % 0.0 mm 0 W/m2
08:30 3.1 °C 2.8 °C 1013.8 hPa NW 8.0 km/h 8.0 km/h 98 % 0.0 mm 0 W/m2
08:35 2.9 °C 2.5 °C 1014.1 hPa West 4.8 km/h 8.0 km/h 97 % 0.0 mm 0 W/m2
08:40 4.2 °C 3.9 °C 1014.1 hPa West 4.8 km/h 12.9 km/h 98 % 0.0 mm 0 W/m2
08:45 4.7 °C 4.4 °C 1014.1 hPa WNW 4.8 km/h 12.9 km/h 98 % 0.0 mm 0 W/m2
08:50 4.7 °C 4.4 °C 1014.4 hPa NW 1.6 km/h 6.4 km/h 98 % 0.3 mm 0 W/m2
08:55 5.0 °C 4.7 °C 1014.4 hPa Calm   8.0 km/h 98 % 0.3 mm 0 W/m2
09:00 5.2 °C 4.9 °C 1014.4 hPa Calm   8.0 km/h 98 % 0.3 mm 7 W/m2
09:05 5.3 °C 5.0 °C 1014.4 hPa Calm   1.6 km/h 98 % 0.3 mm 11 W/m2
09:10 5.2 °C 4.9 °C 1014.8 hPa NW 1.6 km/h 3.2 km/h 98 % 0.3 mm 16 W/m2
09:15 5.2 °C 4.9 °C 1014.8 hPa Calm   3.2 km/h 98 % 0.3 mm 40 W/m2
09:20 5.4 °C 5.1 °C 1014.4 hPa Calm   1.6 km/h 98 % 0.5 mm 56 W/m2
09:25 5.3 °C 5.0 °C 1014.8 hPa Calm   1.6 km/h 98 % 0.5 mm 35 W/m2
09:30 5.2 °C 4.8 °C 1014.8 hPa Calm   1.6 km/h 97 % 0.5 mm 40 W/m2
09:35 5.2 °C 4.7 °C 1014.8 hPa Calm     97 % 0.5 mm 42 W/m2
09:40 5.3 °C 5.0 °C 1014.8 hPa Calm     98 % 0.5 mm 44 W/m2
09:45 5.4 °C 5.2 °C 1014.8 hPa Calm     98 % 0.5 mm 62 W/m2
09:50 5.6 °C 5.3 °C 1014.8 hPa NW 1.6 km/h 3.2 km/h 98 % 0.3 mm 54 W/m2
09:55 5.7 °C 5.4 °C 1014.8 hPa Calm   3.2 km/h 98 % 0.3 mm 39 W/m2
10:00 5.7 °C 5.4 °C 1014.8 hPa NW 3.2 km/h 3.2 km/h 98 % 0.3 mm 42 W/m2
10:05 5.7 °C 5.4 °C 1015.1 hPa Calm   4.8 km/h 98 % 0.3 mm 44 W/m2
10:10 5.6 °C 5.3 °C 1015.1 hPa Calm   4.8 km/h 98 % 0.3 mm 35 W/m2
10:15 5.6 °C 5.3 °C 1015.1 hPa Calm   3.2 km/h 98 % 0.3 mm 32 W/m2
10:20 5.4 °C 5.2 °C 1015.5 hPa Calm   1.6 km/h 98 % 0.0 mm 30 W/m2
10:25 5.5 °C 5.2 °C 1015.5 hPa Calm     98 % 0.0 mm 105 W/m2
10:30 5.9 °C 5.6 °C 1015.5 hPa Calm     98 % 0.0 mm 207 W/m2
10:35 6.4 °C 6.1 °C 1015.5 hPa Calm   1.6 km/h 98 % 0.0 mm 223 W/m2
10:40 6.6 °C 6.3 °C 1015.5 hPa Calm   1.6 km/h 98 % 0.0 mm 236 W/m2
10:45 6.9 °C 6.6 °C 1015.5 hPa Calm   1.6 km/h 98 % 0.0 mm 244 W/m2
10:55 7.6 °C 7.1 °C 1015.5 hPa South 4.8 km/h 6.4 km/h 97 % 0.0 mm 267 W/m2
11:00 7.7 °C 7.1 °C 1015.5 hPa Calm   6.4 km/h 96 % 0.0 mm 276 W/m2
11:05 7.9 °C 7.3 °C 1015.8 hPa SSW 1.6 km/h 4.8 km/h 96 % 0.0 mm 285 W/m2
11:10 8.1 °C 7.2 °C 1015.8 hPa Calm   4.8 km/h 94 % 0.0 mm 294 W/m2
11:15 8.3 °C 7.3 °C 1015.8 hPa SSW 1.6 km/h 6.4 km/h 93 % 0.0 mm 301 W/m2
11:20 8.4 °C 7.2 °C 1015.8 hPa Calm   6.4 km/h 92 % 0.0 mm 306 W/m2
11:25 8.7 °C 7.3 °C 1015.8 hPa SSW 4.8 km/h 9.7 km/h 91 % 0.0 mm 315 W/m2
11:35 8.9 °C 7.4 °C 1015.8 hPa SSW 3.2 km/h 8.0 km/h 90 % 0.0 mm 330 W/m2
11:40 9.0 °C 7.3 °C 1016.1 hPa SW 3.2 km/h 11.3 km/h 89 % 0.0 mm 341 W/m2
11:45 9.2 °C 7.3 °C 1016.1 hPa SSW 6.4 km/h 11.3 km/h 88 % 0.0 mm 299 W/m2
11:50 9.1 °C 7.2 °C 1016.1 hPa SW 4.8 km/h 9.7 km/h 88 % 0.0 mm 297 W/m2
11:55 9.1 °C 7.0 °C 1016.1 hPa SSW 6.4 km/h 9.7 km/h 87 % 0.0 mm 369 W/m2
12:00 9.4 °C 7.4 °C 1016.1 hPa WSW 1.6 km/h 9.7 km/h 87 % 0.0 mm 381 W/m2
12:05 9.6 °C 7.2 °C 1016.1 hPa SW 4.8 km/h 12.9 km/h 85 % 0.0 mm 383 W/m2
12:10 9.6 °C 6.7 °C 1016.1 hPa SW 6.4 km/h 12.9 km/h 82 % 0.0 mm 376 W/m2
12:15 9.7 °C 7.0 °C 1016.1 hPa WSW 6.4 km/h 12.9 km/h 83 % 0.0 mm 380 W/m2
12:20 9.9 °C 7.1 °C 1016.1 hPa Calm   9.7 km/h 83 % 0.0 mm 380 W/m2
12:25 9.9 °C 7.4 °C 1016.1 hPa South 8.0 km/h 11.3 km/h 84 % 0.0 mm 381 W/m2
12:30 9.9 °C 7.0 °C 1016.1 hPa WSW 8.0 km/h 16.1 km/h 82 % 0.0 mm 383 W/m2
12:35 10.2 °C 7.4 °C 1016.1 hPa SW 4.8 km/h 16.1 km/h 83 % 0.0 mm 387 W/m2
12:40 10.2 °C 7.4 °C 1016.1 hPa SSW 8.0 km/h 16.1 km/h 83 % 0.0 mm 390 W/m2
12:45 10.2 °C 7.3 °C 1016.1 hPa SSW 11.3 km/h 14.5 km/h 82 % 0.0 mm 392 W/m2
12:50 10.3 °C 7.2 °C 1016.1 hPa SW 11.3 km/h 17.7 km/h 81 % 0.0 mm 394 W/m2
12:55 10.2 °C 7.1 °C 1016.1 hPa South 6.4 km/h 17.7 km/h 81 % 0.0 mm 396 W/m2
13:00 10.3 °C 7.2 °C 1016.1 hPa SSW 9.7 km/h 17.7 km/h 81 % 0.0 mm 396 W/m2
13:05 10.6 °C 7.4 °C 1016.1 hPa SSW 6.4 km/h 17.7 km/h 81 % 0.0 mm 399 W/m2
13:10 10.4 °C 7.4 °C 1016.1 hPa SSW 8.0 km/h 12.9 km/h 82 % 0.0 mm 401 W/m2
13:15 10.5 °C 7.6 °C 1016.1 hPa SW 12.9 km/h 16.1 km/h 82 % 0.0 mm 403 W/m2
13:20 10.5 °C 7.4 °C 1016.1 hPa SSW 4.8 km/h 16.1 km/h 81 % 0.0 mm 410 W/m2
13:25 10.8 °C 7.7 °C 1016.1 hPa SSW 3.2 km/h 16.1 km/h 81 % 0.0 mm 383 W/m2
13:30 10.3 °C 7.0 °C 1016.1 hPa SSW 6.4 km/h 16.1 km/h 80 % 0.0 mm 207 W/m2
13:35 10.4 °C 7.5 °C 1016.1 hPa SSW 9.7 km/h 16.1 km/h 82 % 0.0 mm 429 W/m2
13:40 10.8 °C 7.6 °C 1016.1 hPa SSW 9.7 km/h 14.5 km/h 81 % 0.0 mm 410 W/m2
13:45 10.7 °C 7.4 °C 1016.1 hPa SSW 12.9 km/h 17.7 km/h 80 % 0.0 mm 357 W/m2
13:50 10.7 °C 7.5 °C 1015.8 hPa SSW 8.0 km/h 17.7 km/h 81 % 0.0 mm 392 W/m2
13:55 10.7 °C 7.2 °C 1015.8 hPa South 4.8 km/h 14.5 km/h 79 % 0.0 mm 100 W/m2
14:00 10.2 °C 6.9 °C 1016.1 hPa SSW 4.8 km/h 16.1 km/h 80 % 0.0 mm 128 W/m2
14:05 9.9 °C 7.0 °C 1016.1 hPa SSW 8.0 km/h 16.1 km/h 82 % 0.0 mm 151 W/m2
14:10 9.8 °C 6.8 °C 1016.1 hPa SW 4.8 km/h 11.3 km/h 82 % 0.0 mm 181 W/m2
14:15 9.8 °C 7.1 °C 1015.8 hPa SSW 9.7 km/h 9.7 km/h 83 % 0.0 mm 172 W/m2
14:20 9.8 °C 6.9 °C 1015.8 hPa South 4.8 km/h 11.3 km/h 82 % 0.0 mm 185 W/m2
14:25 9.9 °C 7.2 °C 1015.8 hPa South 6.4 km/h 11.3 km/h 83 % 0.0 mm 214 W/m2
14:30 10.1 °C 7.4 °C 1015.8 hPa SSW 8.0 km/h 11.3 km/h 83 % 0.0 mm 214 W/m2
14:35 10.1 °C 7.1 °C 1015.8 hPa South 8.0 km/h 14.5 km/h 82 % 0.0 mm 181 W/m2
14:40 10.1 °C 7.1 °C 1015.8 hPa SSW 8.0 km/h 14.5 km/h 82 % 0.0 mm 227 W/m2
14:45 10.3 °C 7.3 °C 1015.8 hPa SSW 9.7 km/h 12.9 km/h 82 % 0.0 mm 279 W/m2
14:50 10.8 °C 7.6 °C 1015.8 hPa South 8.0 km/h 12.9 km/h 81 % 0.0 mm 480 W/m2
14:55 11.1 °C 7.9 °C 1015.8 hPa SSW 8.0 km/h 11.3 km/h 81 % 0.0 mm 427 W/m2
15:00 11.3 °C 7.8 °C 1015.8 hPa SSW 4.8 km/h 12.9 km/h 79 % 0.0 mm 418 W/m2
15:05 11.4 °C 7.9 °C 1015.8 hPa South 8.0 km/h 17.7 km/h 79 % 0.0 mm 408 W/m2
15:10 11.4 °C 7.7 °C 1015.8 hPa SSW 4.8 km/h 17.7 km/h 78 % 0.0 mm 313 W/m2
15:15 10.9 °C 7.4 °C 1016.1 hPa SSW 8.0 km/h 14.5 km/h 79 % 0.0 mm 165 W/m2
15:20 10.8 °C 7.5 °C 1016.1 hPa SW 6.4 km/h 14.5 km/h 80 % 0.0 mm 260 W/m2
15:25 10.9 °C 7.9 °C 1016.1 hPa SSW 4.8 km/h 9.7 km/h 82 % 0.0 mm 214 W/m2
15:30 11.1 °C 7.8 °C 1016.1 hPa SSW 8.0 km/h 11.3 km/h 80 % 0.0 mm 420 W/m2
15:35 11.7 °C 8.0 °C 1016.1 hPa SSW 9.7 km/h 17.7 km/h 78 % 0.0 mm 214 W/m2
15:40 11.1 °C 7.2 °C 1016.1 hPa SSW 11.3 km/h 17.7 km/h 77 % 0.0 mm 236 W/m2
15:45 11.0 °C 7.3 °C 1016.1 hPa South 14.5 km/h 19.3 km/h 78 % 0.0 mm 137 W/m2
15:50 10.7 °C 7.0 °C 1016.1 hPa SSW 9.7 km/h 19.3 km/h 78 % 0.0 mm 81 W/m2
15:55 10.4 °C 6.9 °C 1016.1 hPa SSW 9.7 km/h 17.7 km/h 79 % 0.0 mm 104 W/m2
16:00 10.3 °C 7.0 °C 1016.1 hPa South 9.7 km/h 16.1 km/h 80 % 0.0 mm 113 W/m2
16:05 10.2 °C 6.9 °C 1016.1 hPa SSW 6.4 km/h 16.1 km/h 80 % 0.0 mm 63 W/m2
16:10 10.0 °C 6.9 °C 1016.5 hPa WSW 6.4 km/h 20.9 km/h 81 % 0.0 mm 54 W/m2
16:15 9.3 °C 6.4 °C 1016.5 hPa WNW 8.0 km/h 20.9 km/h 82 % 0.0 mm 251 W/m2
16:20 9.3 °C 6.5 °C 1016.5 hPa WNW 4.8 km/h 16.1 km/h 83 % 0.0 mm 243 W/m2
16:25 9.3 °C 6.4 °C 1016.5 hPa NW 6.4 km/h 16.1 km/h 82 % 0.0 mm 155 W/m2
16:30 9.2 °C 6.3 °C 1016.5 hPa NW 1.6 km/h 14.5 km/h 82 % 0.0 mm 100 W/m2
16:35 8.9 °C 6.2 °C 1016.8 hPa WNW 3.2 km/h 8.0 km/h 83 % 0.0 mm 70 W/m2
16:40 8.7 °C 6.0 °C 1016.8 hPa WNW 1.6 km/h 8.0 km/h 83 % 0.0 mm 77 W/m2
16:45 8.7 °C 5.9 °C 1016.8 hPa WNW 4.8 km/h 8.0 km/h 83 % 0.0 mm 76 W/m2
16:50 8.7 °C 6.1 °C 1016.8 hPa Calm   6.4 km/h 84 % 0.0 mm 56 W/m2
16:55 8.6 °C 6.2 °C 1016.8 hPa Calm   4.8 km/h 85 % 0.0 mm 35 W/m2
17:00 8.6 °C 6.2 °C 1016.8 hPa Calm   1.6 km/h 85 % 0.0 mm 35 W/m2
17:05 8.6 °C 6.3 °C 1016.8 hPa WNW 1.6 km/h 3.2 km/h 86 % 0.0 mm 39 W/m2
17:10 8.5 °C 6.3 °C 1016.8 hPa WNW 3.2 km/h 3.2 km/h 86 % 0.0 mm 37 W/m2
17:15 8.5 °C 6.3 °C 1016.8 hPa Calm   3.2 km/h 86 % 0.0 mm 28 W/m2
17:20 8.5 °C 6.5 °C 1016.8 hPa Calm   3.2 km/h 87 % 0.0 mm 49 W/m2
17:25 8.6 °C 6.5 °C 1017.2 hPa WNW 1.6 km/h 4.8 km/h 87 % 0.0 mm 39 W/m2
17:30 8.6 °C 6.3 °C 1017.2 hPa SW 4.8 km/h 6.4 km/h 86 % 0.0 mm 26 W/m2
17:35 8.4 °C 6.4 °C 1016.8 hPa SW 3.2 km/h 6.4 km/h 87 % 0.0 mm 23 W/m2
17:40 8.4 °C 6.3 °C 1017.2 hPa SW 3.2 km/h 6.4 km/h 87 % 0.0 mm 16 W/m2
17:45 8.3 °C 6.2 °C 1017.2 hPa Calm   6.4 km/h 87 % 0.0 mm 12 W/m2
17:50 8.2 °C 6.4 °C 1017.2 hPa SW 1.6 km/h 4.8 km/h 88 % 0.0 mm 9 W/m2
17:55 8.2 °C 6.3 °C 1017.2 hPa SW 1.6 km/h 6.4 km/h 88 % 0.0 mm 7 W/m2
18:00 8.1 °C 6.2 °C 1017.2 hPa SW 3.2 km/h 6.4 km/h 88 % 0.0 mm 0 W/m2
18:05 8.1 °C 6.2 °C 1017.2 hPa Calm   4.8 km/h 88 % 0.0 mm 0 W/m2
18:10 7.8 °C 6.0 °C 1017.2 hPa Calm   4.8 km/h 88 % 0.0 mm 0 W/m2
18:15 7.7 °C 6.0 °C 1017.5 hPa Calm   4.8 km/h 89 % 0.0 mm 0 W/m2
18:20 7.7 °C 6.0 °C 1017.5 hPa Calm   4.8 km/h 89 % 0.0 mm 0 W/m2
18:25 7.6 °C 5.9 °C 1017.2 hPa SW 3.2 km/h 6.4 km/h 89 % 0.0 mm 0 W/m2
18:30 7.3 °C 5.7 °C 1017.5 hPa Calm   8.0 km/h 90 % 0.0 mm 0 W/m2
18:35 7.2 °C 5.7 °C 1017.5 hPa SW 3.2 km/h 8.0 km/h 90 % 0.0 mm 0 W/m2
18:40 6.8 °C 5.3 °C 1017.5 hPa SSW 4.8 km/h 8.0 km/h 90 % 0.0 mm 0 W/m2
18:45 6.8 °C 5.3 °C 1017.5 hPa SSW 3.2 km/h 8.0 km/h 90 % 0.0 mm 0 W/m2
18:50 6.9 °C 5.5 °C 1017.5 hPa SSW 4.8 km/h 8.0 km/h 91 % 0.0 mm 0 W/m2
18:55 6.8 °C 5.5 °C 1017.8 hPa SSW 6.4 km/h 8.0 km/h 91 % 0.0 mm 0 W/m2
19:00 6.8 °C 5.4 °C 1017.8 hPa SSW 6.4 km/h 9.7 km/h 91 % 0.0 mm 0 W/m2
19:05 6.7 °C 5.3 °C 1017.8 hPa SSW 4.8 km/h 9.7 km/h 91 % 0.0 mm 0 W/m2
19:10 6.6 °C 5.2 °C 1017.8 hPa South 8.0 km/h 9.7 km/h 91 % 0.0 mm 0 W/m2
19:15 6.4 °C 5.1 °C 1017.8 hPa South 3.2 km/h 9.7 km/h 91 % 0.0 mm 0 W/m2
19:20 6.3 °C 5.0 °C 1017.8 hPa South 6.4 km/h 9.7 km/h 91 % 0.0 mm 0 W/m2
19:25 6.2 °C 4.9 °C 1017.8 hPa SSE 4.8 km/h 11.3 km/h 91 % 0.0 mm 0 W/m2
19:30 6.0 °C 4.6 °C 1017.8 hPa South 1.6 km/h 11.3 km/h 91 % 0.0 mm 0 W/m2
19:35 5.9 °C 4.5 °C 1017.8 hPa South 3.2 km/h 8.0 km/h 91 % 0.0 mm 0 W/m2
19:40 5.6 °C 4.4 °C 1017.8 hPa South 3.2 km/h 6.4 km/h 92 % 0.0 mm 0 W/m2
19:45 5.8 °C 4.7 °C 1017.8 hPa South 4.8 km/h 8.0 km/h 93 % 0.0 mm 0 W/m2
19:50 5.9 °C 4.7 °C 1017.8 hPa South 4.8 km/h 11.3 km/h 92 % 0.0 mm 0 W/m2
19:55 6.2 °C 5.0 °C 1018.2 hPa SSW 4.8 km/h 12.9 km/h 92 % 0.0 mm 0 W/m2
20:00 6.4 °C 5.2 °C 1018.2 hPa SSW 6.4 km/h 12.9 km/h 92 % 0.0 mm 0 W/m2
20:05 6.7 °C 5.3 °C 1018.2 hPa SSW 9.7 km/h 12.9 km/h 91 % 0.0 mm 0 W/m2
20:10 6.7 °C 5.4 °C 1018.2 hPa SSW 3.2 km/h 12.9 km/h 91 % 0.0 mm 0 W/m2
20:15 6.7 °C 5.4 °C 1018.2 hPa SSW 8.0 km/h 12.9 km/h 91 % 0.0 mm 0 W/m2
20:20 6.6 °C 5.2 °C 1018.2 hPa SW 4.8 km/h 12.9 km/h 91 % 0.0 mm 0 W/m2
20:25 6.5 °C 5.1 °C 1018.2 hPa South 4.8 km/h 11.3 km/h 91 % 0.0 mm 0 W/m2
20:30 6.4 °C 5.0 °C 1018.2 hPa SSW 4.8 km/h 11.3 km/h 91 % 0.0 mm 0 W/m2
20:35 6.3 °C 5.1 °C 1018.2 hPa SW 6.4 km/h 9.7 km/h 92 % 0.0 mm 0 W/m2
20:40 6.3 °C 5.1 °C 1018.2 hPa SSW 6.4 km/h 9.7 km/h 92 % 0.0 mm 0 W/m2
20:45 6.2 °C 5.0 °C 1018.5 hPa SSW 4.8 km/h 9.7 km/h 92 % 0.0 mm 0 W/m2
20:50 6.2 °C 5.1 °C 1018.5 hPa SW 3.2 km/h 9.7 km/h 93 % 0.0 mm 0 W/m2
20:55 6.1 °C 5.1 °C 1018.5 hPa SSW 4.8 km/h 11.3 km/h 93 % 0.0 mm 0 W/m2
21:00 6.2 °C 5.1 °C 1018.5 hPa SSW 4.8 km/h 11.3 km/h 93 % 0.0 mm 0 W/m2
21:05 6.2 °C 5.2 °C 1018.5 hPa SW 1.6 km/h 9.7 km/h 93 % 0.0 mm 0 W/m2
21:10 6.3 °C 5.4 °C 1018.5 hPa SSW 4.8 km/h 11.3 km/h 94 % 0.0 mm 0 W/m2
21:15 6.4 °C 5.3 °C 1018.5 hPa SSW 4.8 km/h 11.3 km/h 93 % 0.3 mm 0 W/m2
21:20 6.4 °C 5.4 °C 1018.5 hPa South 6.4 km/h 11.3 km/h 93 % 0.3 mm 0 W/m2
21:25 6.3 °C 5.4 °C 1018.5 hPa SSW 4.8 km/h 11.3 km/h 94 % 0.3 mm 0 W/m2
21:30 6.3 °C 5.4 °C 1018.5 hPa South 4.8 km/h 9.7 km/h 94 % 0.3 mm 0 W/m2
21:35 6.2 °C 5.3 °C 1018.5 hPa South 6.4 km/h 9.7 km/h 94 % 0.3 mm 0 W/m2
21:40 6.1 °C 5.2 °C 1018.5 hPa South 4.8 km/h 9.7 km/h 94 % 0.3 mm 0 W/m2
21:45 6.1 °C 5.2 °C 1018.5 hPa South 4.8 km/h 9.7 km/h 94 % 0.3 mm 0 W/m2
21:50 6.2 °C 5.4 °C 1018.8 hPa SSW 6.4 km/h 9.7 km/h 95 % 0.3 mm 0 W/m2
21:55 6.2 °C 5.4 °C 1018.8 hPa South 6.4 km/h 9.7 km/h 95 % 0.3 mm 0 W/m2
22:00 6.2 °C 5.4 °C 1018.8 hPa South 4.8 km/h 9.7 km/h 95 % 0.3 mm 0 W/m2
22:05 6.0 °C 5.3 °C 1018.8 hPa SSW 3.2 km/h 9.7 km/h 95 % 0.3 mm 0 W/m2
22:10 5.9 °C 5.2 °C 1018.8 hPa SSW 4.8 km/h 8.0 km/h 95 % 0.3 mm 0 W/m2
22:15 5.8 °C 5.1 °C 1018.5 hPa SSW 4.8 km/h 8.0 km/h 95 % 0.0 mm 0 W/m2
22:20 5.7 °C 5.0 °C 1018.8 hPa SSW 3.2 km/h 8.0 km/h 95 % 0.0 mm 0 W/m2
22:25 5.8 °C 5.0 °C 1018.8 hPa South 4.8 km/h 8.0 km/h 95 % 0.0 mm 0 W/m2
22:30 5.8 °C 5.0 °C 1018.8 hPa South 6.4 km/h 8.0 km/h 95 % 0.0 mm 0 W/m2
22:35 5.7 °C 5.0 °C 1018.8 hPa South 4.8 km/h 8.0 km/h 95 % 0.0 mm 0 W/m2
22:40 5.6 °C 4.8 °C 1018.8 hPa South 3.2 km/h 8.0 km/h 95 % 0.0 mm 0 W/m2
22:45 5.5 °C 4.9 °C 1018.8 hPa South 3.2 km/h 8.0 km/h 96 % 0.0 mm 0 W/m2
22:50 5.5 °C 4.9 °C 1018.8 hPa South 6.4 km/h 8.0 km/h 96 % 0.0 mm 0 W/m2
22:55 5.6 °C 5.0 °C 1018.8 hPa South 4.8 km/h 9.7 km/h 96 % 0.0 mm 0 W/m2
23:00 5.5 °C 4.9 °C 1018.8 hPa South 6.4 km/h 9.7 km/h 96 % 0.0 mm 0 W/m2
23:05 5.3 °C 4.5 °C 1018.8 hPa South 4.8 km/h 8.0 km/h 95 % 0.0 mm 0 W/m2
23:10 5.1 °C 4.3 °C 1018.8 hPa South 3.2 km/h 6.4 km/h 95 % 0.0 mm 0 W/m2
23:15 5.0 °C 4.4 °C 1018.8 hPa South 4.8 km/h 6.4 km/h 96 % 0.0 mm 0 W/m2
23:20 4.8 °C 4.2 °C 1018.8 hPa South 4.8 km/h 6.4 km/h 96 % 0.0 mm 0 W/m2
23:25 5.0 °C 4.4 °C 1018.8 hPa South 8.0 km/h 8.0 km/h 96 % 0.0 mm 0 W/m2
23:30 4.9 °C 4.3 °C 1018.8 hPa SSW 6.4 km/h 8.0 km/h 96 % 0.0 mm 0 W/m2
23:35 4.8 °C 4.2 °C 1018.8 hPa SSW 3.2 km/h 8.0 km/h 96 % 0.0 mm 0 W/m2
23:40 4.7 °C 4.1 °C 1018.8 hPa SSW 3.2 km/h 6.4 km/h 96 % 0.0 mm 0 W/m2
23:45 4.7 °C 4.1 °C 1018.8 hPa SSW 3.2 km/h 8.0 km/h 96 % 0.0 mm 0 W/m2
23:50 4.7 °C 4.1 °C 1018.8 hPa SSW 4.8 km/h 8.0 km/h 96 % 0.0 mm 0 W/m2
23:55 4.3 °C 3.8 °C 1018.8 hPa SSW 3.2 km/h 6.4 km/h 96 % 0.0 mm 0 W/m2
Avec l'autorisation de Weather Underground - 1.75 mb